createdAt,value
2023-05-14T00:00:01.333Z,70.24
2023-05-14T00:01:01.430Z,69.89
2023-05-14T00:02:01.575Z,69.54
2023-05-14T00:03:01.596Z,70.24
2023-05-14T00:04:01.717Z,70.07
2023-05-14T00:05:01.732Z,69.72
2023-05-14T00:06:01.821Z,69.26
2023-05-14T00:07:01.872Z,69.66
2023-05-14T00:08:01.955Z,69.66
2023-05-14T00:09:02.048Z,70.18
2023-05-14T00:10:02.118Z,70.12
2023-05-14T00:11:02.178Z,69.95
2023-05-14T00:12:02.267Z,70.07
2023-05-14T00:13:02.429Z,69.60
2023-05-14T00:14:02.456Z,70.18
2023-05-14T00:15:02.554Z,71.08
2023-05-14T00:16:02.652Z,70.54
2023-05-14T00:17:02.722Z,70.96
2023-05-14T00:18:02.837Z,70.90
2023-05-14T00:19:02.925Z,70.96
2023-05-14T00:20:02.988Z,70.36
2023-05-14T00:21:03.096Z,70.42
2023-05-14T00:22:03.199Z,71.02
2023-05-14T00:23:03.253Z,70.78
2023-05-14T00:24:03.355Z,70.42
2023-05-14T00:25:03.433Z,70.07
2023-05-14T00:26:03.527Z,70.54
2023-05-14T00:27:03.626Z,70.42
2023-05-14T00:28:03.720Z,69.60
2023-05-14T00:29:03.809Z,69.14
2023-05-14T00:30:03.899Z,69.08
2023-05-14T00:31:04.034Z,69.26
2023-05-14T00:32:04.074Z,69.37
2023-05-14T00:33:04.241Z,69.08
2023-05-14T00:34:04.264Z,69.49
2023-05-14T00:35:04.429Z,68.86
2023-05-14T00:36:04.454Z,69.14
2023-05-14T00:37:04.493Z,68.86
2023-05-14T00:38:04.604Z,68.57
2023-05-14T00:39:04.678Z,68.69
2023-05-14T00:40:04.738Z,68.63
2023-05-14T00:41:04.797Z,69.37
2023-05-14T00:42:04.848Z,70.60
2023-05-14T00:43:04.967Z,71.75
2023-05-14T00:44:05.053Z,72.12
2023-05-14T00:45:05.102Z,72.24
2023-05-14T00:46:05.203Z,73.19
2023-05-14T00:47:05.487Z,73.45
2023-05-14T00:48:05.411Z,73.64
2023-05-14T00:49:05.442Z,73.45
2023-05-14T00:50:05.539Z,72.87
2023-05-14T00:51:05.624Z,72.18
2023-05-14T00:52:05.703Z,71.75
2023-05-14T00:53:05.797Z,69.54
2023-05-14T00:54:05.888Z,68.13
2023-05-14T00:55:05.975Z,66.56
2023-05-14T00:56:06.066Z,65.31
2023-05-14T00:57:06.111Z,64.16
2023-05-14T00:58:06.200Z,63.15
2023-05-14T00:59:06.307Z,62.39
2023-05-14T01:00:06.362Z,62.35
2023-05-14T01:01:06.513Z,61.43
2023-05-14T01:02:06.514Z,61.34
2023-05-14T01:03:06.722Z,60.76
2023-05-14T01:04:06.828Z,59.81
2023-05-14T01:05:06.726Z,59.90
2023-05-14T01:06:06.780Z,59.09
2023-05-14T01:07:06.858Z,59.43
2023-05-14T01:08:06.985Z,58.84
2023-05-14T01:09:07.066Z,59.51
2023-05-14T01:10:07.137Z,59.85
2023-05-14T01:11:07.236Z,59.85
2023-05-14T01:12:07.327Z,59.85
2023-05-14T01:13:07.417Z,60.07
2023-05-14T01:14:07.530Z,60.02
2023-05-14T01:15:07.634Z,59.85
2023-05-14T01:16:07.714Z,59.22
2023-05-14T01:17:07.764Z,58.97
2023-05-14T01:18:07.907Z,58.51
2023-05-14T01:19:08.005Z,58.23
2023-05-14T01:20:08.027Z,58.07
2023-05-14T01:21:08.092Z,56.69
2023-05-14T01:22:08.145Z,56.92
2023-05-14T01:23:08.220Z,56.73
2023-05-14T01:24:08.319Z,56.85
2023-05-14T01:25:08.381Z,56.31
2023-05-14T01:26:08.463Z,56.77
2023-05-14T01:27:08.547Z,56.69
2023-05-14T01:28:08.636Z,55.86
2023-05-14T01:29:08.714Z,55.71
2023-05-14T01:30:08.751Z,55.23
2023-05-14T01:31:08.843Z,54.34
2023-05-14T01:32:08.998Z,53.30
2023-05-14T01:33:09.018Z,53.30
2023-05-14T01:34:09.070Z,53.00
2023-05-14T01:35:09.166Z,53.06
2023-05-14T01:36:09.250Z,52.63
2023-05-14T01:37:09.305Z,52.60
2023-05-14T01:38:09.410Z,52.70
2023-05-14T01:39:09.496Z,52.53
2023-05-14T01:40:09.575Z,52.30
2023-05-14T01:41:09.658Z,53.17
2023-05-14T01:42:09.762Z,53.37
2023-05-14T01:43:09.866Z,53.03
2023-05-14T01:44:09.919Z,52.90
2023-05-14T01:45:10.023Z,52.70
2023-05-14T01:46:10.123Z,52.66
2023-05-14T01:47:10.169Z,52.76
2023-05-14T01:48:10.270Z,52.53
2023-05-14T01:49:10.314Z,52.83
2023-05-14T01:50:10.409Z,52.11
2023-05-14T01:51:10.498Z,51.69
2023-05-14T01:52:10.608Z,50.97
2023-05-14T01:53:10.670Z,50.81
2023-05-14T01:54:10.753Z,51.15
2023-05-14T01:55:10.859Z,51.24
2023-05-14T01:56:10.926Z,50.93
2023-05-14T01:57:11.019Z,50.84
2023-05-14T01:58:11.090Z,50.38
2023-05-14T01:59:11.177Z,50.08
2023-05-14T02:00:11.274Z,49.87
2023-05-14T02:01:11.380Z,50.69
2023-05-14T02:02:11.464Z,50.87
2023-05-14T02:03:11.596Z,51.06
2023-05-14T02:04:11.614Z,50.53
2023-05-14T02:05:11.666Z,50.50
2023-05-14T02:06:11.748Z,51.06
2023-05-14T02:07:11.824Z,51.66
2023-05-14T02:08:11.933Z,51.98
2023-05-14T02:09:12.044Z,51.78
2023-05-14T02:10:12.090Z,51.31
2023-05-14T02:11:12.173Z,50.69
2023-05-14T02:12:12.232Z,50.87
2023-05-14T02:13:12.335Z,51.09
2023-05-14T02:14:12.388Z,51.15
2023-05-14T02:15:12.484Z,51.98
2023-05-14T02:16:12.609Z,52.20
2023-05-14T02:17:12.665Z,53.10
2023-05-14T02:18:12.898Z,53.10
2023-05-14T02:19:12.953Z,52.33
2023-05-14T02:20:12.931Z,52.56
2023-05-14T02:21:13.032Z,52.17
2023-05-14T02:22:13.080Z,52.01
2023-05-14T02:23:13.170Z,51.78
2023-05-14T02:24:13.275Z,51.21
2023-05-14T02:25:13.319Z,51.43
2023-05-14T02:26:13.422Z,50.75
2023-05-14T02:27:13.502Z,51.28
2023-05-14T02:28:13.596Z,51.24
2023-05-14T02:29:13.713Z,51.00
2023-05-14T02:30:13.780Z,50.81
2023-05-14T02:31:13.874Z,50.72
2023-05-14T02:32:13.966Z,50.72
2023-05-14T02:33:14.143Z,50.78
2023-05-14T02:34:14.147Z,50.44
2023-05-14T02:35:14.205Z,50.08
2023-05-14T02:36:14.307Z,49.99
2023-05-14T02:37:14.363Z,49.03
2023-05-14T02:38:14.444Z,48.15
2023-05-14T02:39:14.548Z,47.66
2023-05-14T02:40:14.603Z,47.85
2023-05-14T02:41:14.695Z,47.42
2023-05-14T02:42:14.811Z,46.63
2023-05-14T02:43:14.878Z,46.68
2023-05-14T02:44:14.959Z,46.37
2023-05-14T02:45:15.075Z,46.52
2023-05-14T02:46:15.224Z,46.16
2023-05-14T02:47:15.231Z,46.32
2023-05-14T02:48:15.324Z,46.47
2023-05-14T02:49:15.400Z,46.89
2023-05-14T02:50:15.518Z,46.57
2023-05-14T02:51:15.583Z,46.37
2023-05-14T02:52:15.677Z,46.37
2023-05-14T02:53:15.734Z,45.71
2023-05-14T02:54:15.831Z,45.81
2023-05-14T02:55:15.893Z,45.86
2023-05-14T02:56:15.958Z,45.76
2023-05-14T02:57:16.061Z,45.91
2023-05-14T02:58:16.114Z,46.11
2023-05-14T02:59:16.202Z,45.91
2023-05-14T03:00:16.296Z,46.21
2023-05-14T03:01:16.371Z,46.21
2023-05-14T03:02:16.444Z,46.32
2023-05-14T03:03:16.580Z,46.73
2023-05-14T03:04:16.561Z,46.94
2023-05-14T03:05:16.675Z,47.15
2023-05-14T03:06:16.734Z,47.28
2023-05-14T03:07:16.808Z,47.04
2023-05-14T03:08:16.861Z,46.52
2023-05-14T03:09:16.959Z,47.10
2023-05-14T03:10:17.007Z,46.83
2023-05-14T03:11:17.103Z,46.47
2023-05-14T03:12:17.180Z,46.32
2023-05-14T03:13:17.230Z,46.63
2023-05-14T03:14:17.313Z,46.57
2023-05-14T03:15:17.425Z,46.37
2023-05-14T03:16:17.541Z,46.16
2023-05-14T03:17:17.559Z,45.51
2023-05-14T03:18:17.647Z,45.46
2023-05-14T03:19:17.826Z,44.88
2023-05-14T03:20:17.802Z,44.69
2023-05-14T03:21:17.919Z,44.74
2023-05-14T03:22:17.941Z,44.69
2023-05-14T03:23:18.030Z,44.64
2023-05-14T03:24:18.126Z,44.74
2023-05-14T03:25:18.209Z,45.07
2023-05-14T03:26:18.323Z,45.61
2023-05-14T03:27:18.374Z,46.47
2023-05-14T03:28:18.467Z,47.17
2023-05-14T03:29:18.561Z,48.37
2023-05-14T03:30:18.642Z,48.21
2023-05-14T03:31:18.837Z,48.18
2023-05-14T03:32:18.855Z,47.69
2023-05-14T03:33:18.932Z,47.44
2023-05-14T03:34:19.005Z,47.82
2023-05-14T03:35:19.100Z,47.85
2023-05-14T03:36:19.190Z,47.55
2023-05-14T03:37:19.274Z,47.99
2023-05-14T03:38:19.338Z,47.93
2023-05-14T03:39:19.416Z,48.51
2023-05-14T03:40:19.520Z,48.49
2023-05-14T03:41:19.569Z,48.71
2023-05-14T03:42:19.646Z,49.11
2023-05-14T03:43:19.699Z,49.17
2023-05-14T03:44:19.787Z,49.03
2023-05-14T03:45:19.881Z,48.77
2023-05-14T03:46:19.979Z,47.88
2023-05-14T03:47:20.094Z,47.66
2023-05-14T03:48:20.249Z,47.82
2023-05-14T03:49:20.227Z,47.90
2023-05-14T03:50:20.322Z,48.35
2023-05-14T03:51:20.425Z,48.04
2023-05-14T03:52:20.504Z,48.51
2023-05-14T03:53:20.594Z,48.94
2023-05-14T03:54:21.261Z,49.37
2023-05-14T03:55:20.753Z,49.55
2023-05-14T03:56:20.822Z,50.17
2023-05-14T03:57:20.910Z,50.26
2023-05-14T03:58:20.998Z,50.29
2023-05-14T03:59:21.077Z,50.35
2023-05-14T04:00:21.489Z,49.96
2023-05-14T04:01:21.276Z,50.87
2023-05-14T04:02:21.457Z,50.56
2023-05-14T04:03:21.573Z,50.11
2023-05-14T04:04:21.551Z,50.69
2023-05-14T04:05:21.562Z,51.37
2023-05-14T04:06:21.615Z,51.62
2023-05-14T04:07:21.704Z,52.27
2023-05-14T04:08:21.805Z,52.80
2023-05-14T04:09:21.884Z,53.13
2023-05-14T04:10:22.399Z,53.13
2023-05-14T04:11:22.035Z,52.60
2023-05-14T04:12:22.122Z,52.76
2023-05-14T04:13:22.217Z,53.47
2023-05-14T04:14:22.313Z,53.47
2023-05-14T04:15:22.404Z,53.47
2023-05-14T04:16:22.577Z,53.71
2023-05-14T04:17:22.575Z,53.50
2023-05-14T04:18:22.676Z,53.64
2023-05-14T04:19:22.760Z,54.48
2023-05-14T04:20:22.961Z,54.48
2023-05-14T04:21:22.909Z,54.76
2023-05-14T04:22:22.962Z,54.66
2023-05-14T04:23:23.049Z,54.09
2023-05-14T04:24:23.148Z,53.74
2023-05-14T04:25:23.195Z,53.64
2023-05-14T04:26:23.297Z,53.50
2023-05-14T04:27:23.386Z,54.13
2023-05-14T04:28:23.454Z,54.20
2023-05-14T04:29:23.511Z,54.66
2023-05-14T04:30:23.831Z,54.98
2023-05-14T04:31:23.913Z,55.38
2023-05-14T04:32:23.803Z,56.35
2023-05-14T04:33:23.847Z,56.42
2023-05-14T04:34:23.951Z,56.77
2023-05-14T04:35:25.152Z,56.35
2023-05-14T04:36:24.093Z,56.35
2023-05-14T04:37:24.197Z,56.42
2023-05-14T04:38:24.270Z,56.92
2023-05-14T04:39:24.364Z,57.39
2023-05-14T04:40:24.764Z,57.71
2023-05-14T04:41:24.521Z,57.51
2023-05-14T04:42:24.599Z,58.47
2023-05-14T04:43:24.699Z,58.27
2023-05-14T04:44:24.793Z,57.91
2023-05-14T04:45:24.871Z,57.79
2023-05-14T04:46:25.206Z,57.08
2023-05-14T04:47:25.084Z,57.00
2023-05-14T04:48:25.146Z,57.67
2023-05-14T04:49:25.242Z,58.43
2023-05-14T04:50:25.556Z,58.43
2023-05-14T04:51:25.387Z,58.03
2023-05-14T04:52:25.487Z,59.38
2023-05-14T04:53:25.556Z,59.98
2023-05-14T04:54:25.676Z,59.81
2023-05-14T04:55:25.733Z,59.60
2023-05-14T04:56:25.795Z,59.81
2023-05-14T04:57:25.887Z,60.63
2023-05-14T04:58:25.942Z,61.61
2023-05-14T04:59:26.034Z,62.35
2023-05-14T05:00:26.419Z,61.66
2023-05-14T05:01:26.238Z,60.99
2023-05-14T05:02:26.324Z,60.63
2023-05-14T05:03:26.475Z,59.98
2023-05-14T05:04:26.429Z,59.60
2023-05-14T05:05:26.502Z,59.51
2023-05-14T05:06:26.603Z,59.38
2023-05-14T05:07:26.705Z,59.47
2023-05-14T05:08:26.824Z,59.47
2023-05-14T05:09:26.849Z,59.01
2023-05-14T05:10:27.084Z,59.38
2023-05-14T05:11:27.005Z,59.64
2023-05-14T05:12:27.109Z,58.68
2023-05-14T05:13:27.174Z,59.17
2023-05-14T05:14:27.242Z,59.34
2023-05-14T05:15:27.335Z,60.02
2023-05-14T05:16:27.547Z,60.63
2023-05-14T05:17:27.534Z,61.84
2023-05-14T05:18:27.598Z,62.21
2023-05-14T05:19:39.582Z,62.81
2023-05-14T05:20:27.746Z,63.48
2023-05-14T05:21:27.794Z,63.77
2023-05-14T05:22:27.896Z,63.87
2023-05-14T05:23:27.977Z,64.21
2023-05-14T05:24:28.069Z,64.51
2023-05-14T05:25:28.153Z,65.47
2023-05-14T05:26:28.228Z,65.52
2023-05-14T05:27:28.296Z,65.01
2023-05-14T05:28:28.384Z,64.71
2023-05-14T05:29:28.472Z,65.36
2023-05-14T05:30:28.560Z,65.31
2023-05-14T05:31:28.673Z,65.01
2023-05-14T05:32:28.768Z,64.66
2023-05-14T05:33:28.840Z,63.53
2023-05-14T05:34:28.891Z,63.63
2023-05-14T05:35:28.996Z,64.76
2023-05-14T05:36:29.089Z,64.21
2023-05-14T05:37:29.156Z,63.38
2023-05-14T05:38:29.263Z,61.98
2023-05-14T05:39:29.314Z,61.61
2023-05-14T05:40:29.409Z,61.75
2023-05-14T05:41:29.494Z,61.48
2023-05-14T05:42:29.583Z,62.16
2023-05-14T05:43:29.672Z,61.57
2023-05-14T05:44:29.772Z,61.89
2023-05-14T05:45:29.830Z,62.35
2023-05-14T05:46:30.022Z,62.53
2023-05-14T05:47:30.010Z,61.57
2023-05-14T05:48:30.037Z,60.02
2023-05-14T05:49:30.123Z,60.11
2023-05-14T05:50:30.204Z,59.85
2023-05-14T05:51:30.299Z,59.85
2023-05-14T05:52:30.385Z,60.72
2023-05-14T05:53:30.478Z,61.61
2023-05-14T05:54:30.583Z,60.90
2023-05-14T05:55:30.638Z,60.76
2023-05-14T05:56:30.730Z,59.77
2023-05-14T05:57:30.823Z,59.94
2023-05-14T05:58:30.874Z,60.28
2023-05-14T05:59:30.968Z,60.02
2023-05-14T06:00:31.020Z,58.43
2023-05-14T06:01:31.109Z,58.76
2023-05-14T06:02:31.300Z,61.39
2023-05-14T06:03:31.263Z,64.61
2023-05-14T06:04:31.357Z,65.47
2023-05-14T06:05:31.519Z,66.82
2023-05-14T06:06:31.540Z,69.26
2023-05-14T06:07:31.643Z,72.12
2023-05-14T06:08:31.717Z,74.10
2023-05-14T06:09:31.765Z,76.19
2023-05-14T06:10:31.853Z,78.03
2023-05-14T06:11:31.947Z,79.59
2023-05-14T06:12:32.039Z,80.20
2023-05-14T06:13:32.128Z,88.41
2023-05-14T06:14:32.231Z,95.36
2023-05-14T06:15:32.316Z,100.48
2023-05-14T06:16:32.414Z,103.01
2023-05-14T06:17:32.472Z,105.41
2023-05-14T06:18:32.549Z,111.59
2023-05-14T06:19:32.606Z,114.41
2023-05-14T06:20:32.705Z,112.57
2023-05-14T06:21:40.246Z,110.49
2023-05-14T06:22:37.837Z,113.94
2023-05-14T06:23:35.582Z,115.76
2023-05-14T06:24:32.994Z,114.26
2023-05-14T06:25:33.091Z,113.79
2023-05-14T06:26:33.174Z,114.73
2023-05-14T06:27:33.218Z,118.63
2023-05-14T06:28:33.303Z,119.90
2023-05-14T06:29:33.431Z,115.60
2023-05-14T06:30:33.488Z,114.18
2023-05-14T06:31:33.633Z,116.32
2023-05-14T06:32:33.727Z,115.60
2023-05-14T06:33:33.749Z,116.89
2023-05-14T06:34:33.846Z,119.30
2023-05-14T06:35:33.915Z,119.99
2023-05-14T06:36:33.990Z,118.54
2023-05-14T06:37:34.037Z,118.88
2023-05-14T06:38:34.159Z,120.33
2023-05-14T06:39:34.204Z,122.98
2023-05-14T06:40:34.303Z,126.89
2023-05-14T06:41:34.394Z,130.55
2023-05-14T06:42:34.476Z,136.29
2023-05-14T06:43:34.548Z,139.00
2023-05-14T06:44:34.631Z,139.00
2023-05-14T06:45:34.677Z,142.19
2023-05-14T06:46:34.775Z,141.11
2023-05-14T06:47:34.966Z,143.65
2023-05-14T06:48:35.007Z,145.40
2023-05-14T06:49:35.049Z,147.45
2023-05-14T06:50:35.151Z,145.78
2023-05-14T06:51:35.200Z,145.65
2023-05-14T06:52:35.315Z,145.02
2023-05-14T06:53:35.388Z,148.76
2023-05-14T06:54:35.435Z,150.90
2023-05-14T06:55:35.529Z,152.97
2023-05-14T06:56:35.640Z,160.13
2023-05-14T06:57:35.676Z,161.68
2023-05-14T06:58:35.759Z,161.37
2023-05-14T06:59:35.868Z,160.29
2023-05-14T07:00:35.926Z,159.37
2023-05-14T07:01:36.030Z,160.44
2023-05-14T07:02:36.236Z,161.37
2023-05-14T07:03:36.179Z,163.57
2023-05-14T07:04:36.342Z,160.75
2023-05-14T07:05:36.389Z,163.57
2023-05-14T07:06:36.437Z,171.79
2023-05-14T07:07:36.501Z,179.14
2023-05-14T07:08:36.623Z,176.50
2023-05-14T07:09:36.679Z,178.19
2023-05-14T07:10:36.764Z,178.19
2023-05-14T07:11:36.901Z,179.14
2023-05-14T07:12:36.945Z,179.34
2023-05-14T07:13:37.060Z,178.57
2023-05-14T07:14:37.139Z,179.53
2023-05-14T07:15:37.188Z,175.03
2023-05-14T07:16:37.322Z,178.00
2023-05-14T07:17:37.399Z,173.22
2023-05-14T07:18:37.509Z,169.02
2023-05-14T07:19:37.531Z,167.84
2023-05-14T07:20:37.605Z,168.85
2023-05-14T07:21:37.695Z,167.84
2023-05-14T07:22:37.791Z,166.01
2023-05-14T07:23:37.879Z,161.52
2023-05-14T07:24:37.978Z,157.13
2023-05-14T07:25:38.090Z,157.42
2023-05-14T07:26:38.140Z,161.37
2023-05-14T07:27:38.235Z,161.99
2023-05-14T07:28:38.334Z,163.57
2023-05-14T07:29:38.451Z,168.51
2023-05-14T07:30:38.513Z,174.48
2023-05-14T07:31:38.572Z,172.68
2023-05-14T07:32:38.692Z,166.34
2023-05-14T07:33:38.692Z,164.70
2023-05-14T07:34:38.783Z,161.84
2023-05-14T07:35:38.881Z,154.95
2023-05-14T07:36:38.961Z,151.72
2023-05-14T07:37:39.091Z,144.65
2023-05-14T07:38:39.135Z,139.70
2023-05-14T07:39:39.189Z,133.04
2023-05-14T07:40:39.285Z,127.67
2023-05-14T07:41:39.378Z,126.32
2023-05-14T07:42:39.485Z,126.80
2023-05-14T07:43:39.546Z,125.66
2023-05-14T07:44:39.703Z,124.54
2023-05-14T07:45:39.730Z,129.24
2023-05-14T07:46:39.779Z,131.06
2023-05-14T07:47:39.939Z,135.52
2023-05-14T07:48:39.977Z,136.18
2023-05-14T07:49:40.020Z,134.86
2023-05-14T07:50:40.133Z,138.66
2023-05-14T07:51:40.184Z,137.52
2023-05-14T07:52:40.280Z,137.97
2023-05-14T07:53:40.365Z,147.06
2023-05-14T07:54:40.457Z,147.06
2023-05-14T07:55:40.541Z,145.90
2023-05-14T07:56:40.646Z,140.99
2023-05-14T07:57:40.736Z,137.97
2023-05-14T07:58:40.822Z,136.51
2023-05-14T07:59:40.922Z,135.08
2023-05-14T08:00:41.009Z,133.04
2023-05-14T08:01:41.169Z,134.00
2023-05-14T08:02:41.287Z,135.52
2023-05-14T08:03:41.332Z,134.54
2023-05-14T08:04:41.323Z,136.29
2023-05-14T08:05:41.406Z,133.15
2023-05-14T08:06:41.518Z,131.37
2023-05-14T08:07:41.572Z,132.51
2023-05-14T08:08:41.666Z,132.51
2023-05-14T08:09:41.749Z,133.89
2023-05-14T08:10:41.875Z,134.86
2023-05-14T08:11:41.966Z,134.86
2023-05-14T08:12:41.989Z,135.52
2023-05-14T08:13:42.081Z,135.52
2023-05-14T08:14:42.191Z,135.63
2023-05-14T08:15:42.210Z,140.64
2023-05-14T08:16:42.344Z,143.90
2023-05-14T08:17:42.448Z,149.55
2023-05-14T08:18:42.461Z,150.36
2023-05-14T08:19:42.546Z,141.11
2023-05-14T08:20:42.635Z,136.96
2023-05-14T08:21:42.734Z,140.17
2023-05-14T08:22:42.839Z,142.43
2023-05-14T08:23:42.904Z,146.42
2023-05-14T08:24:42.998Z,154.24
2023-05-14T08:25:43.072Z,158.62
2023-05-14T08:26:43.167Z,160.75
2023-05-14T08:27:43.280Z,164.54
2023-05-14T08:28:43.325Z,159.83
2023-05-14T08:29:43.416Z,152.27
2023-05-14T08:30:43.547Z,145.78
2023-05-14T08:31:43.576Z,139.12
2023-05-14T08:32:43.693Z,134.86
2023-05-14T08:33:43.780Z,134.43
2023-05-14T08:34:44.149Z,135.52
2023-05-14T08:35:43.949Z,132.41
2023-05-14T08:36:44.012Z,136.51
2023-05-14T08:37:44.102Z,137.52
2023-05-14T08:38:44.218Z,136.40
2023-05-14T08:39:44.302Z,131.89
2023-05-14T08:40:44.380Z,126.70
2023-05-14T08:41:44.471Z,126.22
2023-05-14T08:42:44.553Z,127.28
2023-05-14T08:43:44.662Z,132.31
2023-05-14T08:44:44.729Z,135.52
2023-05-14T08:45:44.783Z,136.73
2023-05-14T08:46:44.872Z,134.43
2023-05-14T08:47:44.984Z,134.21
2023-05-14T08:48:45.147Z,138.43
2023-05-14T08:49:45.171Z,134.97
2023-05-14T08:50:45.244Z,134.32
2023-05-14T08:51:45.337Z,135.19
2023-05-14T08:52:45.437Z,137.29
2023-05-14T08:53:45.526Z,136.18
2023-05-14T08:54:45.636Z,136.40
2023-05-14T08:55:45.716Z,135.96
2023-05-14T08:56:45.809Z,136.07
2023-05-14T08:57:45.869Z,135.08
2023-05-14T08:58:45.962Z,132.31
2023-05-14T08:59:46.068Z,130.25
2023-05-14T09:00:46.114Z,129.04
2023-05-14T09:01:46.265Z,130.65
2023-05-14T09:02:46.345Z,130.96
2023-05-14T09:03:46.427Z,134.97
2023-05-14T09:04:46.494Z,139.58
2023-05-14T09:05:47.206Z,141.95
2023-05-14T09:06:46.650Z,145.90
2023-05-14T09:07:46.760Z,148.23
2023-05-14T09:08:46.832Z,149.02
2023-05-14T09:09:46.925Z,150.63
2023-05-14T09:10:47.026Z,153.25
2023-05-14T09:11:47.114Z,154.09
2023-05-14T09:12:47.213Z,158.32
2023-05-14T09:13:47.261Z,161.84
2023-05-14T09:14:47.391Z,163.10
2023-05-14T09:15:47.458Z,159.52
2023-05-14T09:16:47.569Z,156.69
2023-05-14T09:17:47.679Z,153.39
2023-05-14T09:18:47.802Z,158.02
2023-05-14T09:19:47.792Z,165.51
2023-05-14T09:20:47.880Z,166.17
2023-05-14T09:21:47.981Z,167.33
2023-05-14T09:22:48.073Z,164.21
2023-05-14T09:23:48.169Z,164.21
2023-05-14T09:24:48.229Z,165.51
2023-05-14T09:25:48.326Z,168.68
2023-05-14T09:26:48.430Z,170.92
2023-05-14T09:27:48.473Z,171.44
2023-05-14T09:28:48.562Z,167.84
2023-05-14T09:29:48.660Z,172.68
2023-05-14T09:30:48.738Z,168.85
2023-05-14T09:31:48.860Z,175.21
2023-05-14T09:32:48.990Z,169.88
2023-05-14T09:33:48.993Z,168.85
2023-05-14T09:34:49.089Z,163.10
2023-05-14T09:35:49.170Z,161.99
2023-05-14T09:36:49.258Z,164.54
2023-05-14T09:37:49.354Z,164.70
2023-05-14T09:38:49.445Z,162.62
2023-05-14T09:39:49.540Z,162.31
2023-05-14T09:40:49.617Z,160.44
2023-05-14T09:41:49.714Z,161.37
2023-05-14T09:42:49.804Z,162.15
2023-05-14T09:43:49.898Z,160.75
2023-05-14T09:44:50.009Z,165.68
2023-05-14T09:45:50.125Z,170.92
2023-05-14T09:46:50.205Z,174.48
2023-05-14T09:47:50.365Z,175.21
2023-05-14T09:48:50.311Z,175.39
2023-05-14T09:49:50.403Z,170.22
2023-05-14T09:50:50.499Z,172.68
2023-05-14T09:51:50.595Z,171.27
2023-05-14T09:52:50.669Z,170.92
2023-05-14T09:53:50.809Z,168.68
2023-05-14T09:54:50.836Z,166.67
2023-05-14T09:55:50.887Z,172.32
2023-05-14T09:56:50.980Z,169.71
2023-05-14T09:57:51.072Z,166.50
2023-05-14T09:58:51.162Z,162.78
2023-05-14T09:59:51.249Z,159.83
2023-05-14T10:00:51.379Z,162.62
2023-05-14T10:01:51.443Z,167.16
2023-05-14T10:02:51.567Z,168.00
2023-05-14T10:03:51.609Z,169.53
2023-05-14T10:04:51.729Z,172.32
2023-05-14T10:05:51.779Z,173.04
2023-05-14T10:06:51.882Z,172.32
2023-05-14T10:07:51.976Z,173.93
2023-05-14T10:08:52.044Z,175.39
2023-05-14T10:09:52.137Z,184.27
2023-05-14T10:10:52.233Z,184.47
2023-05-14T10:11:52.302Z,188.78
2023-05-14T10:12:52.397Z,195.04
2023-05-14T10:13:52.415Z,202.10
2023-05-14T10:14:52.511Z,208.24
2023-05-14T10:15:52.626Z,207.58
2023-05-14T10:16:52.789Z,207.19
2023-05-14T10:17:52.824Z,205.89
2023-05-14T10:18:53.858Z,197.14
2023-05-14T10:19:52.968Z,189.43
2023-05-14T10:20:53.034Z,190.64
2023-05-14T10:21:53.102Z,200.01
2023-05-14T10:22:53.178Z,202.35
2023-05-14T10:23:53.230Z,198.45
2023-05-14T10:24:53.331Z,195.74
2023-05-14T10:25:53.448Z,193.44
2023-05-14T10:26:53.508Z,192.19
2023-05-14T10:27:53.595Z,189.21
2023-05-14T10:28:53.717Z,190.64
2023-05-14T10:29:53.825Z,188.67
2023-05-14T10:30:53.860Z,192.98
2023-05-14T10:31:53.948Z,195.39
2023-05-14T10:32:54.006Z,201.24
2023-05-14T10:33:54.067Z,197.61
2023-05-14T10:34:54.147Z,194.35
2023-05-14T10:35:54.244Z,197.73
2023-05-14T10:36:54.334Z,200.75
2023-05-14T10:37:54.467Z,201.24
2023-05-14T10:38:54.507Z,200.87
2023-05-14T10:39:54.587Z,197.50
2023-05-14T10:40:54.705Z,206.41
2023-05-14T10:41:54.758Z,204.74
2023-05-14T10:42:54.853Z,213.22
2023-05-14T10:43:54.962Z,216.87
2023-05-14T10:44:55.011Z,214.47
2023-05-14T10:45:55.108Z,206.54
2023-05-14T10:46:55.233Z,202.23
2023-05-14T10:47:55.302Z,196.32
2023-05-14T10:48:55.330Z,195.04
2023-05-14T10:49:55.402Z,196.67
2023-05-14T10:50:55.557Z,200.50
2023-05-14T10:51:55.534Z,198.57
2023-05-14T10:52:55.652Z,202.23
2023-05-14T10:53:55.708Z,203.22
2023-05-14T10:54:55.811Z,205.25
2023-05-14T10:55:55.902Z,207.84
2023-05-14T10:56:55.995Z,215.31
2023-05-14T10:57:56.082Z,217.16
2023-05-14T10:58:56.163Z,214.05
2023-05-14T10:59:56.256Z,207.19
2023-05-14T11:00:56.292Z,197.97
2023-05-14T11:01:56.410Z,187.92
2023-05-14T11:02:56.661Z,183.26
2023-05-14T11:03:56.589Z,190.97
2023-05-14T11:04:56.639Z,204.49
2023-05-14T11:05:56.692Z,210.50
2023-05-14T11:06:56.783Z,207.84
2023-05-14T11:07:56.897Z,209.96
2023-05-14T11:08:56.943Z,212.12
2023-05-14T11:09:57.038Z,211.04
2023-05-14T11:10:57.138Z,205.12
2023-05-14T11:11:57.230Z,203.10
2023-05-14T11:12:57.380Z,197.85
2023-05-14T11:13:58.261Z,193.32
2023-05-14T11:14:57.475Z,192.08
2023-05-14T11:15:57.591Z,194.58
2023-05-14T11:16:57.737Z,193.89
2023-05-14T11:17:57.760Z,192.42
2023-05-14T11:18:57.841Z,193.10
2023-05-14T11:19:57.910Z,192.08
2023-05-14T11:20:57.959Z,192.08
2023-05-14T11:21:58.043Z,188.56
2023-05-14T11:22:58.136Z,185.59
2023-05-14T11:23:58.231Z,182.86
2023-05-14T11:24:58.324Z,184.88
2023-05-14T11:25:58.489Z,191.52
2023-05-14T11:26:58.543Z,192.87
2023-05-14T11:27:58.642Z,200.75
2023-05-14T11:28:58.712Z,200.50
2023-05-14T11:29:58.790Z,202.97
2023-05-14T11:30:58.845Z,202.97
2023-05-14T11:31:59.014Z,207.84
2023-05-14T11:33:01.193Z,207.45
2023-05-14T11:33:59.112Z,205.51
2023-05-14T11:34:59.217Z,199.05
2023-05-14T11:35:59.284Z,192.53
2023-05-14T11:36:59.386Z,178.57
2023-05-14T11:37:59.484Z,154.80
2023-05-14T11:38:59.565Z,139.00
2023-05-14T11:39:59.652Z,129.14
2023-05-14T11:40:59.750Z,123.25
2023-05-14T11:41:59.844Z,120.68
2023-05-14T11:42:59.936Z,120.85
2023-05-14T11:44:00.056Z,122.26
2023-05-14T11:45:00.171Z,121.55
2023-05-14T11:46:00.281Z,120.85
2023-05-14T11:47:00.297Z,121.73
2023-05-14T11:48:00.380Z,123.80
2023-05-14T11:49:00.399Z,126.22
2023-05-14T11:50:00.490Z,125.56
2023-05-14T11:51:00.585Z,126.80
2023-05-14T11:52:00.691Z,131.79
2023-05-14T11:53:00.769Z,136.85
2023-05-14T11:54:00.861Z,139.35
2023-05-14T11:55:00.947Z,144.27
2023-05-14T11:56:01.046Z,145.78
2023-05-14T11:57:01.100Z,147.19
2023-05-14T11:58:01.225Z,146.80
2023-05-14T11:59:01.283Z,151.72
2023-05-14T12:00:01.391Z,152.97
2023-05-14T12:01:01.432Z,158.77
2023-05-14T12:02:01.525Z,161.99
2023-05-14T12:03:01.733Z,159.83
2023-05-14T12:04:01.850Z,157.72
2023-05-14T12:05:01.780Z,154.80
2023-05-14T12:06:01.873Z,151.45
2023-05-14T12:07:01.963Z,147.32
2023-05-14T12:08:02.894Z,144.77
2023-05-14T12:09:02.146Z,147.97
2023-05-14T12:10:02.237Z,147.58
2023-05-14T12:11:02.315Z,145.02
2023-05-14T12:12:02.408Z,143.53
2023-05-14T12:13:02.505Z,138.89
2023-05-14T12:14:02.578Z,136.40
2023-05-14T12:15:02.689Z,132.31
2023-05-14T12:16:02.876Z,127.47
2023-05-14T12:17:02.832Z,125.00
2023-05-14T12:18:03.035Z,123.07
2023-05-14T12:19:03.080Z,123.80
2023-05-14T12:20:03.133Z,122.00
2023-05-14T12:21:03.207Z,119.30
2023-05-14T12:22:03.382Z,118.79
2023-05-14T12:23:03.395Z,115.84
2023-05-14T12:24:03.487Z,115.04
2023-05-14T12:25:03.597Z,116.40
2023-05-14T12:26:03.680Z,116.16
2023-05-14T12:27:03.768Z,116.00
2023-05-14T12:28:03.847Z,114.41
2023-05-14T12:29:03.937Z,111.07
2023-05-14T12:30:34.200Z,115.12
2023-05-14T12:31:04.202Z,117.46
2023-05-14T12:32:04.249Z,115.84
2023-05-14T12:33:04.348Z,115.92
2023-05-14T12:34:04.402Z,114.41
2023-05-14T12:35:04.511Z,113.64
2023-05-14T12:36:20.447Z,116.48
2023-05-14T12:37:04.647Z,116.89
2023-05-14T12:38:04.773Z,114.88
2023-05-14T12:39:04.810Z,111.59
2023-05-14T12:40:04.898Z,109.26
2023-05-14T12:41:04.985Z,108.27